Terminal Aerodrome Forecast
Issued by NWS

Home | Current Version | Previous Version | Text Only | Print | Product List | Glossary On
Versions: 1 2 3 4 5 6 7 8 9 10 11 12 13 14 15 16 17 18 19 20 21 22 23
000
FTPA31 PHFO 032300
TAFJHM
TAF
PHJH 032337Z 0400/0424 02014G22KT P6SM SCT025 BKN045 BKN250
     FM040600 03011KT P6SM VCSH SCT020 OVC250
     FM041800 03011KT 5SM -RA BKN020 OVC250
      AMD NOT SKED AFT 040400=

USA.gov is the U.S. government's official web portal to all federal, state and local government web resources and services.